createdAt,value
2022-07-31T00:00:20.974Z,94011.50
2022-07-31T00:02:47.903Z,94005.88
2022-07-31T00:05:14.806Z,94006.13
2022-07-31T00:07:42.335Z,93984.50
2022-07-31T00:10:09.560Z,93989.28
2022-07-31T00:12:36.250Z,93989.97
2022-07-31T00:15:08.041Z,94004.91
2022-07-31T00:17:34.808Z,93998.59
2022-07-31T00:20:02.110Z,94012.69
2022-07-31T00:22:29.020Z,94019.31
2022-07-31T00:24:55.863Z,94023.94
2022-07-31T00:27:23.605Z,94028.03
2022-07-31T00:29:50.732Z,94024.25
2022-07-31T00:32:17.468Z,94016.66
2022-07-31T00:34:44.163Z,94020.00
2022-07-31T00:37:11.162Z,94014.28
2022-07-31T00:39:38.492Z,94021.91
2022-07-31T00:42:05.990Z,94025.44
2022-07-31T00:44:32.679Z,94032.28
2022-07-31T00:47:00.608Z,94026.91
2022-07-31T00:49:27.598Z,94031.25
2022-07-31T00:52:05.101Z,94030.84
2022-07-31T00:54:31.889Z,94024.78
2022-07-31T00:56:58.587Z,94027.84
2022-07-31T00:59:25.418Z,94022.38
2022-07-31T01:01:52.146Z,94026.31
2022-07-31T01:04:19.157Z,94028.81
2022-07-31T01:06:47.636Z,94036.53
2022-07-31T01:09:17.437Z,94043.63
2022-07-31T01:12:06.113Z,94029.69
2022-07-31T01:14:38.853Z,94034.75
2022-07-31T01:17:07.369Z,94020.88
2022-07-31T01:19:48.639Z,94028.28
2022-07-31T01:22:42.710Z,94022.03
2022-07-31T01:25:17.559Z,94031.25
2022-07-31T01:27:59.560Z,94032.13
2022-07-31T01:30:39.739Z,94031.59
2022-07-31T01:33:13.467Z,94032.75
2022-07-31T01:35:45.067Z,94027.66
2022-07-31T01:38:16.661Z,94040.16
2022-07-31T01:40:50.702Z,94034.28
2022-07-31T01:43:32.595Z,94027.22
2022-07-31T01:46:02.735Z,94016.84
2022-07-31T01:48:33.354Z,94013.25
2022-07-31T01:51:02.876Z,94017.22
2022-07-31T01:53:36.258Z,94018.56
2022-07-31T01:56:04.501Z,94017.22
2022-07-31T01:58:36.711Z,94023.69
2022-07-31T02:01:05.724Z,94027.56
2022-07-31T02:03:43.420Z,94038.03
2022-07-31T02:06:17.993Z,94029.72
2022-07-31T02:08:47.095Z,94020.28
2022-07-31T02:11:18.038Z,94028.63
2022-07-31T02:13:46.190Z,94028.56
2022-07-31T02:16:14.980Z,94031.34
2022-07-31T02:18:42.498Z,94027.28
2022-07-31T02:21:09.870Z,94032.00
2022-07-31T02:23:38.510Z,94028.97
2022-07-31T02:26:07.267Z,94028.84
2022-07-31T02:28:38.113Z,94029.56
2022-07-31T02:31:10.301Z,94033.91
2022-07-31T02:33:38.427Z,94034.81
2022-07-31T02:36:06.803Z,94042.09
2022-07-31T02:38:34.920Z,94042.69
2022-07-31T02:41:05.078Z,94045.03
2022-07-31T02:43:35.002Z,94037.91
2022-07-31T02:46:03.233Z,94041.44
2022-07-31T02:48:30.153Z,94047.25
2022-07-31T02:50:57.689Z,94050.56
2022-07-31T02:53:25.715Z,94046.16
2022-07-31T02:55:52.944Z,94043.25
2022-07-31T02:58:20.025Z,94038.94
2022-07-31T03:00:46.866Z,94032.69
2022-07-31T03:03:13.632Z,94030.84
2022-07-31T03:05:40.517Z,94028.66
2022-07-31T03:08:07.205Z,94038.06
2022-07-31T03:10:33.877Z,94034.22
2022-07-31T03:13:02.015Z,94047.47
2022-07-31T03:15:30.700Z,94047.22
2022-07-31T03:17:58.528Z,94052.56
2022-07-31T03:20:26.931Z,94055.00
2022-07-31T03:22:54.015Z,94053.19
2022-07-31T03:25:21.947Z,94054.59
2022-07-31T03:27:55.652Z,94049.03
2022-07-31T03:30:25.365Z,94055.56
2022-07-31T03:32:56.087Z,94053.38
2022-07-31T03:35:25.652Z,94066.75
2022-07-31T03:37:52.422Z,94064.22
2022-07-31T03:40:19.865Z,94061.22
2022-07-31T03:43:48.473Z,94069.75
2022-07-31T03:46:21.311Z,94065.59
2022-07-31T03:48:51.976Z,94072.31
2022-07-31T03:51:19.386Z,94071.22
2022-07-31T03:53:46.794Z,94070.41
2022-07-31T03:56:15.321Z,94073.03
2022-07-31T03:58:42.057Z,94082.41
2022-07-31T04:01:15.638Z,94077.75
2022-07-31T04:03:42.402Z,94070.94
2022-07-31T04:06:09.191Z,94080.88
2022-07-31T04:08:35.854Z,94080.03
2022-07-31T04:11:02.496Z,94080.56
2022-07-31T04:13:29.135Z,94082.41
2022-07-31T04:15:55.741Z,94086.09
2022-07-31T04:18:22.363Z,94088.06
2022-07-31T04:20:48.975Z,94086.50
2022-07-31T04:23:16.727Z,94087.63
2022-07-31T04:25:43.372Z,94074.59
2022-07-31T04:28:10.115Z,94075.13
2022-07-31T04:30:37.815Z,94087.19
2022-07-31T04:33:04.687Z,94081.31
2022-07-31T04:35:31.404Z,94077.75
2022-07-31T04:37:58.013Z,94078.25
2022-07-31T04:40:26.435Z,94064.19
2022-07-31T04:42:54.240Z,94066.03
2022-07-31T04:45:20.891Z,94067.09
2022-07-31T04:47:47.553Z,94077.34
2022-07-31T04:50:14.195Z,94075.34
2022-07-31T04:52:40.848Z,94073.53
2022-07-31T04:55:08.241Z,94081.56
2022-07-31T04:57:34.847Z,94075.63
2022-07-31T05:00:04.577Z,94078.19
2022-07-31T05:02:31.315Z,94079.59
2022-07-31T05:04:58.095Z,94086.06
2022-07-31T05:07:28.686Z,94086.97
2022-07-31T05:09:56.540Z,94090.78
2022-07-31T05:12:23.265Z,94092.09
2022-07-31T05:14:49.932Z,94086.41
2022-07-31T05:17:17.262Z,94083.00
2022-07-31T05:19:43.922Z,94087.28
2022-07-31T05:22:11.551Z,94078.56
2022-07-31T05:24:38.463Z,94079.81
2022-07-31T05:27:05.510Z,94075.59
2022-07-31T05:29:33.287Z,94083.41
2022-07-31T05:32:01.161Z,94091.56
2022-07-31T05:34:31.025Z,94085.88
2022-07-31T05:37:01.210Z,94084.59
2022-07-31T05:39:28.760Z,94080.19
2022-07-31T05:41:55.430Z,94081.38
2022-07-31T05:44:22.124Z,94079.38
2022-07-31T05:49:16.019Z,94075.38
2022-07-31T05:51:44.107Z,94083.28
2022-07-31T05:54:10.985Z,94083.16
2022-07-31T05:56:37.647Z,94073.31
2022-07-31T05:59:04.306Z,94085.75
2022-07-31T06:01:31.046Z,94093.38
2022-07-31T06:03:57.704Z,94084.13
2022-07-31T06:06:24.366Z,94079.22
2022-07-31T06:08:51.137Z,94076.91
2022-07-31T06:11:17.825Z,94075.63
2022-07-31T06:13:44.575Z,94078.28
2022-07-31T06:16:15.482Z,94087.38
2022-07-31T06:18:42.890Z,94085.31
2022-07-31T06:23:37.312Z,94082.03
2022-07-31T06:26:04.317Z,94081.19
2022-07-31T06:28:48.962Z,94087.16
2022-07-31T06:31:20.600Z,94088.53
2022-07-31T06:33:48.808Z,94080.59
2022-07-31T06:36:17.661Z,94080.84
2022-07-31T06:38:44.433Z,94079.66
2022-07-31T06:41:11.558Z,94072.56
2022-07-31T06:43:38.338Z,94074.66
2022-07-31T06:46:05.029Z,94077.56
2022-07-31T06:48:31.673Z,94075.25
2022-07-31T06:53:45.086Z,94086.06
2022-07-31T06:56:11.851Z,94082.63
2022-07-31T06:58:38.660Z,94082.13
2022-07-31T07:01:05.354Z,94095.47
2022-07-31T07:03:32.158Z,94089.53
2022-07-31T07:05:58.937Z,94090.19
2022-07-31T07:08:25.785Z,94093.31
2022-07-31T07:10:52.501Z,94096.16
2022-07-31T07:13:19.169Z,94093.09
2022-07-31T07:15:46.028Z,94101.81
2022-07-31T07:18:12.883Z,94098.03
2022-07-31T07:20:39.521Z,94103.31
2022-07-31T07:23:06.472Z,94101.91
2022-07-31T07:25:33.439Z,94109.16
2022-07-31T07:28:02.693Z,94105.25
2022-07-31T07:30:29.327Z,94117.31
2022-07-31T07:32:56.357Z,94107.97
2022-07-31T07:35:23.065Z,94111.44
2022-07-31T07:37:49.751Z,94112.00
2022-07-31T07:40:17.184Z,94112.53
2022-07-31T07:42:44.672Z,94113.69
2022-07-31T07:45:11.667Z,94104.31
2022-07-31T07:48:03.295Z,94098.13
2022-07-31T07:50:29.287Z,94095.75
2022-07-31T07:52:56.836Z,94099.84
2022-07-31T07:55:23.918Z,94105.81
2022-07-31T07:57:50.816Z,94107.53
2022-07-31T08:00:17.846Z,94096.41
2022-07-31T08:03:47.671Z,94101.78
2022-07-31T08:05:35.764Z,94111.78
2022-07-31T08:08:03.071Z,94113.28
2022-07-31T08:10:29.887Z,94113.59
2022-07-31T08:12:57.696Z,94112.22
2022-07-31T08:15:25.797Z,94120.75
2022-07-31T08:17:52.847Z,94120.25
2022-07-31T08:20:20.150Z,94123.84
2022-07-31T08:22:46.930Z,94126.94
2022-07-31T08:25:14.322Z,94124.41
2022-07-31T08:27:42.014Z,94123.59
2022-07-31T08:30:09.787Z,94125.25
2022-07-31T08:32:36.625Z,94122.38
2022-07-31T08:35:03.371Z,94114.81
2022-07-31T08:37:51.217Z,94127.63
2022-07-31T08:40:18.674Z,94123.44
2022-07-31T08:42:46.859Z,94127.22
2022-07-31T08:45:14.710Z,94125.34
2022-07-31T08:47:46.448Z,94124.03
2022-07-31T08:50:15.622Z,94129.06
2022-07-31T08:52:49.605Z,94126.06
2022-07-31T08:55:55.212Z,94117.31
2022-07-31T08:58:03.263Z,94122.84
2022-07-31T09:00:30.247Z,94118.72
2022-07-31T09:02:56.949Z,94118.19
2022-07-31T09:05:25.165Z,94125.88
2022-07-31T09:07:53.639Z,94125.94
2022-07-31T09:10:21.177Z,94126.06
2022-07-31T09:12:48.066Z,94122.53
2022-07-31T09:15:27.670Z,94120.09
2022-07-31T09:17:55.206Z,94124.56
2022-07-31T09:20:30.525Z,94126.94
2022-07-31T09:23:06.840Z,94129.22
2022-07-31T09:25:33.788Z,94120.50
2022-07-31T09:28:05.894Z,94124.75
2022-07-31T09:30:33.117Z,94120.09
2022-07-31T09:33:19.395Z,94130.03
2022-07-31T09:35:50.512Z,94131.59
2022-07-31T09:38:18.517Z,94120.88
2022-07-31T09:40:55.355Z,94121.28
2022-07-31T09:43:25.752Z,94111.13
2022-07-31T09:46:03.426Z,94111.09
2022-07-31T09:48:31.408Z,94116.88
2022-07-31T09:51:01.483Z,94105.97
2022-07-31T09:53:43.246Z,94105.84
2022-07-31T09:56:12.685Z,94103.25
2022-07-31T09:58:40.817Z,94104.56
2022-07-31T10:01:11.789Z,94105.63
2022-07-31T10:03:40.681Z,94103.53
2022-07-31T10:06:14.743Z,94099.53
2022-07-31T10:08:46.383Z,94096.03
2022-07-31T10:11:19.944Z,94083.72
2022-07-31T10:13:49.329Z,94088.63
2022-07-31T10:16:16.705Z,94080.91
2022-07-31T10:18:49.700Z,94088.25
2022-07-31T10:21:17.402Z,94087.78
2022-07-31T10:23:44.794Z,94082.69
2022-07-31T10:26:11.837Z,94075.59
2022-07-31T10:28:38.674Z,94070.06
2022-07-31T10:31:06.261Z,94062.19
2022-07-31T10:33:49.265Z,94067.88
2022-07-31T10:36:21.084Z,94064.06
2022-07-31T10:39:05.911Z,94069.22
2022-07-31T10:41:59.666Z,94061.03
2022-07-31T10:44:45.658Z,94057.28
2022-07-31T10:47:16.550Z,94046.47
2022-07-31T10:49:49.114Z,94052.50
2022-07-31T10:52:31.314Z,94050.53
2022-07-31T10:55:01.765Z,94052.72
2022-07-31T10:57:33.576Z,94052.13
2022-07-31T11:00:15.054Z,94044.16
2022-07-31T11:02:41.847Z,94043.44
2022-07-31T11:05:10.244Z,94044.25
2022-07-31T11:07:37.156Z,94038.47
2022-07-31T11:10:17.209Z,94040.13
2022-07-31T11:12:44.599Z,94039.78
2022-07-31T11:15:20.057Z,94041.47
2022-07-31T11:18:21.302Z,94036.72
2022-07-31T11:20:33.505Z,94023.88
2022-07-31T11:23:15.206Z,94026.06
2022-07-31T11:25:42.590Z,94022.06
2022-07-31T11:28:24.657Z,94021.91
2022-07-31T11:30:53.942Z,94023.47
2022-07-31T11:33:47.100Z,94023.75
2022-07-31T11:36:14.848Z,94011.09
2022-07-31T11:38:44.131Z,94015.38
2022-07-31T11:41:15.043Z,94014.38
2022-07-31T11:43:50.569Z,94012.78
2022-07-31T11:46:29.957Z,93998.91
2022-07-31T11:48:57.271Z,93995.53
2022-07-31T11:51:26.058Z,93997.41
2022-07-31T11:53:56.763Z,93995.44
2022-07-31T11:56:26.125Z,94001.72
2022-07-31T11:58:55.750Z,93992.19
2022-07-31T12:01:27.914Z,93993.06
2022-07-31T12:03:55.509Z,93976.75
2022-07-31T12:06:22.602Z,93986.09
2022-07-31T12:08:53.737Z,93995.88
2022-07-31T12:11:21.300Z,93988.38
2022-07-31T12:13:49.292Z,93983.38
2022-07-31T12:16:17.123Z,93980.06
2022-07-31T12:19:04.693Z,93980.47
2022-07-31T12:21:33.447Z,93984.03
2022-07-31T12:24:00.912Z,93968.97
2022-07-31T12:26:32.330Z,93973.97
2022-07-31T12:29:01.597Z,93968.69
2022-07-31T12:31:30.436Z,93958.41
2022-07-31T12:33:57.194Z,93965.72
2022-07-31T12:36:23.998Z,93958.41
2022-07-31T12:39:02.833Z,93953.13
2022-07-31T12:41:31.022Z,93963.50
2022-07-31T12:44:15.445Z,93957.94
2022-07-31T12:46:48.436Z,93955.19
2022-07-31T12:49:15.228Z,93957.03
2022-07-31T12:51:45.793Z,93952.56
2022-07-31T12:54:16.355Z,93955.81
2022-07-31T12:56:43.916Z,93949.53
2022-07-31T12:59:11.369Z,93952.84
2022-07-31T13:01:38.490Z,93948.78
2022-07-31T13:04:07.830Z,93952.94
2022-07-31T13:06:45.500Z,93941.41
2022-07-31T13:09:12.168Z,93939.78
2022-07-31T13:11:45.662Z,93928.28
2022-07-31T13:14:16.832Z,93934.53
2022-07-31T13:16:44.732Z,93927.97
2022-07-31T13:19:11.668Z,93930.63
2022-07-31T13:21:48.004Z,93943.44
2022-07-31T13:24:20.186Z,93934.19
2022-07-31T13:26:48.055Z,93933.69
2022-07-31T13:29:15.330Z,93948.00
2022-07-31T13:31:42.478Z,93945.91
2022-07-31T13:34:09.325Z,93936.06
2022-07-31T13:36:39.274Z,93940.44
2022-07-31T13:39:07.777Z,93937.63
2022-07-31T13:41:35.609Z,93937.00
2022-07-31T13:44:03.564Z,93946.50
2022-07-31T13:46:31.633Z,93936.72
2022-07-31T13:49:01.807Z,93940.94
2022-07-31T13:51:29.464Z,93940.53
2022-07-31T13:53:56.270Z,93933.47
2022-07-31T13:56:39.394Z,93928.06
2022-07-31T13:59:11.846Z,93930.53
2022-07-31T14:02:04.781Z,93933.19
2022-07-31T14:04:32.839Z,93941.88
2022-07-31T14:07:06.169Z,93929.13
2022-07-31T14:09:34.761Z,93954.16
2022-07-31T14:12:04.701Z,93934.63
2022-07-31T14:14:32.216Z,93932.41
2022-07-31T14:16:58.975Z,93932.78
2022-07-31T14:19:25.611Z,93931.94
2022-07-31T14:21:56.665Z,93932.75
2022-07-31T14:24:24.847Z,93934.97
2022-07-31T14:26:51.912Z,93928.72
2022-07-31T14:29:18.576Z,93923.50
2022-07-31T14:31:45.240Z,93917.56
2022-07-31T14:34:11.871Z,93919.50
2022-07-31T14:36:38.543Z,93932.38
2022-07-31T14:39:05.218Z,93923.47
2022-07-31T14:41:31.870Z,93927.69
2022-07-31T14:43:58.492Z,93923.97
2022-07-31T14:46:25.247Z,93927.25
2022-07-31T14:48:52.003Z,93932.06
2022-07-31T14:51:19.273Z,93931.78
2022-07-31T14:53:46.848Z,93925.91
2022-07-31T14:56:15.114Z,93925.56
2022-07-31T14:58:57.651Z,93933.69
2022-07-31T15:01:26.772Z,93931.91
2022-07-31T15:03:57.571Z,93922.50
2022-07-31T15:06:39.697Z,93912.84
2022-07-31T15:09:12.189Z,93913.16
2022-07-31T15:11:57.479Z,93918.72
2022-07-31T15:14:28.689Z,93911.69
2022-07-31T15:16:55.416Z,93907.03
2022-07-31T15:19:22.131Z,93907.28
2022-07-31T15:22:11.368Z,93913.78
2022-07-31T15:24:35.863Z,93907.22
2022-07-31T15:27:02.876Z,93910.59
2022-07-31T15:30:00.414Z,93895.31
2022-07-31T15:32:16.655Z,93899.44
2022-07-31T15:34:43.412Z,93891.06
2022-07-31T15:37:10.072Z,93891.59
2022-07-31T15:40:02.922Z,93907.03
2022-07-31T15:42:34.282Z,93895.94
2022-07-31T15:45:01.892Z,93895.94
2022-07-31T15:47:28.845Z,93900.59
2022-07-31T15:49:55.733Z,93901.72
2022-07-31T15:52:22.435Z,93897.09
2022-07-31T15:54:52.841Z,93896.81
2022-07-31T15:57:23.823Z,93894.34
2022-07-31T15:59:54.368Z,93888.91
2022-07-31T16:02:22.074Z,93889.53
2022-07-31T16:04:53.366Z,93891.47
2022-07-31T16:08:28.664Z,93900.59
2022-07-31T16:10:15.591Z,93902.56
2022-07-31T16:12:45.762Z,93898.53
2022-07-31T16:15:14.012Z,93900.00
2022-07-31T16:17:41.692Z,93894.94
2022-07-31T16:20:10.619Z,93900.84
2022-07-31T16:22:41.205Z,93901.75
2022-07-31T16:25:10.029Z,93901.72
2022-07-31T16:27:38.734Z,93904.25
2022-07-31T16:30:07.228Z,93903.50
2022-07-31T16:32:34.000Z,93904.78
2022-07-31T16:35:01.732Z,93900.72
2022-07-31T16:37:52.350Z,93905.75
2022-07-31T16:40:30.167Z,93906.91
2022-07-31T16:43:48.122Z,93906.06
2022-07-31T16:45:50.623Z,93907.66
2022-07-31T16:48:17.745Z,93912.63
2022-07-31T16:50:44.593Z,93912.69
2022-07-31T16:53:13.592Z,93912.22
2022-07-31T16:56:01.903Z,93919.84
2022-07-31T16:58:29.344Z,93920.44
2022-07-31T17:00:56.504Z,93927.28
2022-07-31T17:04:01.843Z,93922.69
2022-07-31T17:06:11.434Z,93928.94
2022-07-31T17:08:38.446Z,93929.84
2022-07-31T17:11:05.493Z,93937.03
2022-07-31T17:13:32.522Z,93931.91
2022-07-31T17:15:59.167Z,93930.88
2022-07-31T17:18:26.093Z,93938.66
2022-07-31T17:20:55.753Z,93936.22
2022-07-31T17:23:42.641Z,93936.47
2022-07-31T17:26:21.559Z,93937.00
2022-07-31T17:28:50.705Z,93941.53
2022-07-31T17:31:19.378Z,93937.38
2022-07-31T17:33:54.548Z,93944.81
2022-07-31T17:36:27.101Z,93949.00
2022-07-31T17:38:53.831Z,93952.50
2022-07-31T17:41:24.626Z,93960.31
2022-07-31T17:43:54.059Z,93963.28
2022-07-31T17:46:22.056Z,93975.78
2022-07-31T17:48:55.905Z,93969.53
2022-07-31T17:51:22.752Z,93970.66
2022-07-31T17:53:54.823Z,93974.50
2022-07-31T17:56:26.339Z,93975.44
2022-07-31T17:58:52.997Z,93975.25
2022-07-31T18:01:19.793Z,93974.09
2022-07-31T18:03:46.563Z,93972.56
2022-07-31T18:06:13.227Z,93974.66
2022-07-31T18:08:40.089Z,93973.28
2022-07-31T18:11:08.306Z,93984.19
2022-07-31T18:13:48.338Z,93988.88
2022-07-31T18:16:19.251Z,93994.38
2022-07-31T18:18:46.306Z,93986.50
2022-07-31T18:21:13.468Z,93992.03
2022-07-31T18:23:47.327Z,93993.88
2022-07-31T18:26:14.799Z,93988.97
2022-07-31T18:28:41.777Z,93994.16
2022-07-31T18:31:30.759Z,93994.19
2022-07-31T18:33:55.314Z,93998.75
2022-07-31T18:36:21.981Z,93999.81
2022-07-31T18:38:48.753Z,94005.47
2022-07-31T18:41:15.419Z,94013.13
2022-07-31T18:43:42.063Z,94013.25
2022-07-31T18:46:08.749Z,94015.59
2022-07-31T18:48:35.551Z,94022.38
2022-07-31T18:51:04.959Z,94016.84
2022-07-31T18:53:32.960Z,94021.66
2022-07-31T18:55:59.737Z,94024.72
2022-07-31T18:58:26.462Z,94034.56
2022-07-31T19:00:55.297Z,94036.13
2022-07-31T19:03:23.607Z,94046.38
2022-07-31T19:05:52.925Z,94035.13
2022-07-31T19:08:20.673Z,94040.44
2022-07-31T19:10:49.616Z,94052.47
2022-07-31T19:13:19.136Z,94046.09
2022-07-31T19:15:52.897Z,94055.50
2022-07-31T19:18:28.161Z,94057.53
2022-07-31T19:21:23.434Z,94059.72
2022-07-31T19:23:50.094Z,94053.78
2022-07-31T19:26:16.962Z,94062.66
2022-07-31T19:28:43.875Z,94057.63
2022-07-31T19:31:11.715Z,94063.06
2022-07-31T19:33:38.484Z,94058.28
2022-07-31T19:36:05.949Z,94068.66
2022-07-31T19:38:33.971Z,94077.41
2022-07-31T19:41:00.682Z,94072.34
2022-07-31T19:43:28.478Z,94078.25
2022-07-31T19:46:09.350Z,94078.34
2022-07-31T19:48:40.597Z,94078.13
2022-07-31T19:51:07.503Z,94079.34
2022-07-31T19:53:34.218Z,94083.44
2022-07-31T19:56:05.331Z,94076.56
2022-07-31T19:58:36.041Z,94080.00
2022-07-31T20:01:06.317Z,94083.00
2022-07-31T20:03:33.912Z,94092.94
2022-07-31T20:06:01.678Z,94090.78
2022-07-31T20:08:32.753Z,94090.59
2022-07-31T20:11:03.522Z,94093.41
2022-07-31T20:13:31.840Z,94091.91
2022-07-31T20:15:59.251Z,94096.63
2022-07-31T20:18:29.655Z,94094.72
2022-07-31T20:21:06.927Z,94088.81
2022-07-31T20:23:36.732Z,94088.84
2022-07-31T20:26:04.142Z,94088.56
2022-07-31T20:28:30.915Z,94097.69
2022-07-31T20:30:57.653Z,94088.97
2022-07-31T20:33:24.472Z,94085.53
2022-07-31T20:35:51.307Z,94089.41
2022-07-31T20:38:22.350Z,94091.00
2022-07-31T20:40:53.897Z,94093.06
2022-07-31T20:43:23.407Z,94086.72
2022-07-31T20:45:50.172Z,94085.00
2022-07-31T20:48:17.926Z,94086.63
2022-07-31T20:50:48.021Z,94082.97
2022-07-31T20:53:15.797Z,94084.75
2022-07-31T20:55:46.953Z,94088.59
2022-07-31T20:58:13.843Z,94086.13
2022-07-31T21:00:40.919Z,94087.47
2022-07-31T21:03:07.694Z,94090.63
2022-07-31T21:05:34.411Z,94082.44
2022-07-31T21:08:01.158Z,94085.25
2022-07-31T21:10:29.661Z,94093.97
2022-07-31T21:12:57.356Z,94087.38
2022-07-31T21:15:42.989Z,94084.19
2022-07-31T21:18:19.153Z,94088.06
2022-07-31T21:20:51.947Z,94089.41
2022-07-31T21:23:27.046Z,94089.13
2022-07-31T21:25:55.980Z,94091.56
2022-07-31T21:28:23.712Z,94085.81
2022-07-31T21:30:50.795Z,94087.41
2022-07-31T21:33:18.359Z,94087.56
2022-07-31T21:35:46.575Z,94094.88
2022-07-31T21:38:17.138Z,94095.59
2022-07-31T21:40:45.092Z,94091.25
2022-07-31T21:43:15.413Z,94091.13
2022-07-31T21:45:50.583Z,94085.84
2022-07-31T21:48:23.743Z,94078.44
2022-07-31T21:50:51.103Z,94085.72
2022-07-31T21:53:17.741Z,94087.25
2022-07-31T21:55:44.432Z,94083.91
2022-07-31T21:58:11.474Z,94092.84
2022-07-31T22:00:38.654Z,94078.28
2022-07-31T22:03:05.896Z,94081.63
2022-07-31T22:05:52.513Z,94085.25
2022-07-31T22:08:20.182Z,94087.94
2022-07-31T22:10:49.359Z,94088.66
2022-07-31T22:13:16.080Z,94084.91
2022-07-31T22:15:51.609Z,94093.38
2022-07-31T22:18:33.616Z,94091.16
2022-07-31T22:21:02.849Z,94092.06
2022-07-31T22:23:29.839Z,94088.00
2022-07-31T22:25:56.723Z,94090.13
2022-07-31T22:28:24.895Z,94097.53
2022-07-31T22:30:52.520Z,94096.41
2022-07-31T22:33:20.538Z,94098.25
2022-07-31T22:35:59.615Z,94102.94
2022-07-31T22:38:27.397Z,94091.00
2022-07-31T22:40:54.053Z,94092.16
2022-07-31T22:44:10.074Z,94090.34
2022-07-31T22:46:09.045Z,94089.63
2022-07-31T22:48:36.646Z,94079.81
2022-07-31T22:51:04.218Z,94092.75
2022-07-31T22:53:30.925Z,94089.78
2022-07-31T22:55:57.586Z,94087.00
2022-07-31T22:58:24.286Z,94096.06
2022-07-31T23:00:51.152Z,94101.56
2022-07-31T23:03:17.819Z,94099.59
2022-07-31T23:06:02.961Z,94088.00
2022-07-31T23:08:31.159Z,94092.09
2022-07-31T23:10:57.819Z,94094.13
2022-07-31T23:13:24.471Z,94093.00
2022-07-31T23:15:51.118Z,94093.28
2022-07-31T23:18:17.747Z,94103.81
2022-07-31T23:20:44.388Z,94105.53
2022-07-31T23:23:11.067Z,94100.34
2022-07-31T23:25:37.794Z,94102.81
2022-07-31T23:28:04.550Z,94104.78
2022-07-31T23:30:31.206Z,94100.56
2022-07-31T23:32:57.946Z,94105.66
2022-07-31T23:35:24.695Z,94107.78
2022-07-31T23:37:51.369Z,94107.34
2022-07-31T23:40:18.030Z,94109.41
2022-07-31T23:42:44.686Z,94101.09
2022-07-31T23:45:15.615Z,94099.22
2022-07-31T23:47:45.166Z,94094.13
2022-07-31T23:50:14.270Z,94093.69
2022-07-31T23:52:41.616Z,94095.47
2022-07-31T23:55:08.699Z,94081.06
2022-07-31T23:57:36.234Z,94086.25
